Latest Weather Observations for Sydney Harbour

IDN60801

Issued at 1:33 am EDT Tuesday 23 December 2014 (issued every 30 minutes, with the page automatically refreshed every 10 minutes)

About weather observations | Map of weather stations | Latest weather observations for NSW | Other Formats
Station Details ID: 066196 Name: WEDDING CAKE WEST Lat: -33.84 Lon: 151.26 Height: 6.0 m
Data from the previous 72 hours. | See also: Recent months for locations in New South Wales
Date/Time
EDT
Temp
°C
App
Temp
°C
Dew
Point
Rel
Hum
%
Delta-T
°C
Wind Press
QNH
hPa
Press
MSL
hPa
Rain
since 9 am
mm
Dir
 
Spd
km/h
Gust
km/h
Spd
kts
Gust
kts
23/01:30am 21.6 - - - - NNE 32 39 17 21 - - -
23/01:00am 21.7 - - - - NNE 37 46 20 25 - - -
23/12:30am 21.7 - - - - NE 35 44 19 24 - - -
23/12:00am 21.8 - - - - NNE 39 46 21 25 - - -
 
Date/Time
EDT
Temp
°C
App
Temp
°C
Dew
Point
Rel
Hum
%
Delta-T
°C
Wind Press
QNH
hPa
Press
MSL
hPa
Rain
since 9 am
mm
Dir
 
Spd
km/h
Gust
km/h
Spd
kts
Gust
kts
22/11:30pm 21.9 - - - - NNE 41 56 22 30 - - -
22/11:00pm 21.8 - - - - NNE 39 46 21 25 - - -
22/10:30pm 21.8 - - - - NNE 37 44 20 24 - - -
22/10:00pm 21.9 - - - - NNE 41 50 22 27 - - -
22/09:30pm 21.9 - - - - NNE 41 48 22 26 - - -
22/09:00pm 21.9 - - - - NNE 43 50 23 27 - - -
22/08:30pm 22.0 - - - - NNE 41 50 22 27 - - -
22/08:00pm 22.2 - - - - NNE 35 43 19 23 - - -
22/07:30pm 22.3 - - - - NNE 39 50 21 27 - - -
22/07:00pm 22.2 - - - - NNE 37 44 20 24 - - -
22/06:30pm 22.3 - - - - NNE 35 43 19 23 - - -
22/06:00pm 22.5 - - - - NNE 35 41 19 22 - - -
22/05:30pm 22.7 - - - - NNE 41 52 22 28 - - -
22/05:00pm 22.5 - - - - NNE 33 43 18 23 - - -
22/04:30pm 22.5 - - - - NNE 41 52 22 28 - - -
22/04:00pm 22.6 - - - - NNE 43 52 23 28 - - -
22/03:30pm 22.7 - - - - NNE 35 48 19 26 - - -
22/03:00pm 23.0 - - - - NE 35 43 19 23 - - -
22/02:30pm 22.8 - - - - NE 37 48 20 26 - - -
22/02:00pm 22.9 - - - - NE 39 50 21 27 - - -
22/01:30pm 22.9 - - - - NE 37 46 20 25 - - -
22/01:00pm 22.6 - - - - NE 32 37 17 20 - - -
22/12:30pm 22.3 - - - - NE 28 35 15 19 - - -
22/12:00pm 22.4 - - - - NE 26 32 14 17 - - -
22/11:30am 22.1 - - - - NE 24 28 13 15 - - -
22/11:00am 21.8 - - - - NE 19 24 10 13 - - -
22/10:30am 21.7 - - - - NNE 22 24 12 13 - - -
22/10:00am 21.6 - - - - NNE 24 26 13 14 - - -
22/09:30am 21.6 - - - - NNE 24 28 13 15 - - -
22/09:00am 21.2 - - - - NNE 24 28 13 15 - - -
22/08:30am 21.3 - - - - NNE 26 30 14 16 - - -
22/08:00am 21.4 - - - - NNE 24 30 13 16 - - -
22/07:30am 21.1 - - - - NNE 20 24 11 13 - - -
22/07:00am 21.0 - - - - N 17 20 9 11 - - -
22/06:30am 20.9 - - - - N 17 19 9 10 - - -
22/06:00am 21.0 - - - - NNE 20 24 11 13 - - -
22/05:30am 20.8 - - - - NE 20 22 11 12 - - -
22/05:00am 20.9 - - - - NNE 19 22 10 12 - - -
22/04:30am 21.0 - - - - NE 19 22 10 12 - - -
22/04:00am 21.0 - - - - NE 20 24 11 13 - - -
22/03:30am 21.0 - - - - NE 19 22 10 12 - - -
22/03:00am 21.0 - - - - NNE 15 17 8 9 - - -
22/02:30am 21.2 - - - - N 17 20 9 11 - - -
22/02:00am 21.2 - - - - NNE 22 28 12 15 - - -
22/01:30am 21.3 - - - - NNE 20 22 11 12 - - -
22/01:00am 21.5 - - - - NNE 22 28 12 15 - - -
22/12:30am 21.6 - - - - NNE 26 33 14 18 - - -
22/12:00am 21.6 - - - - NNE 33 43 18 23 - - -
 
Date/Time
EDT
Temp
°C
App
Temp
°C
Dew
Point
Rel
Hum
%
Delta-T
°C
Wind Press
QNH
hPa
Press
MSL
hPa
Rain
since 9 am
mm
Dir
 
Spd
km/h
Gust
km/h
Spd
kts
Gust
kts
21/11:30pm 21.7 - - - - NNE 35 44 19 24 - - -
21/11:00pm 21.7 - - - - NNE 32 43 17 23 - - -
21/10:30pm 21.8 - - - - NNE 32 39 17 21 - - -
21/10:00pm 21.9 - - - - NNE 32 39 17 21 - - -
21/09:30pm 21.9 - - - - NNE 30 37 16 20 - - -
21/09:00pm 21.9 - - - - NNE 32 41 17 22 - - -
21/08:30pm 21.9 - - - - NE 30 39 16 21 - - -
21/08:00pm 22.0 - - - - NE 32 39 17 21 - - -
21/07:30pm 22.1 - - - - NNE 33 44 18 24 - - -
21/07:00pm 22.2 - - - - NNE 39 44 21 24 - - -
21/06:30pm 22.3 - - - - NNE 39 48 21 26 - - -
21/06:00pm 22.5 - - - - NNE 37 44 20 24 - - -
21/05:30pm 22.4 - - - - NNE 32 41 17 22 - - -
21/05:00pm 22.6 - - - - NE 30 37 16 20 - - -
21/04:30pm 22.6 - - - - NE 33 43 18 23 - - -
21/04:00pm 22.6 - - - - NE 32 39 17 21 - - -
21/03:30pm 22.3 - - - - NE 32 39 17 21 - - -
21/03:00pm 22.3 - - - - NE 28 33 15 18 - - -
21/02:30pm 22.1 - - - - ENE 28 32 15 17 - - -
21/02:00pm 22.0 - - - - ENE 28 33 15 18 - - -
21/01:30pm 22.1 - - - - ENE 22 28 12 15 - - -
21/01:00pm 22.2 - - - - ENE 24 28 13 15 - - -
21/12:30pm 22.0 - - - - ENE 20 26 11 14 - - -
21/12:00pm 21.8 - - - - ENE 20 28 11 15 - - -
21/11:30am 21.7 - - - - ENE 20 26 11 14 - - -
21/11:00am 21.7 - - - - ENE 19 22 10 12 - - -
21/10:30am 21.6 - - - - NE 17 20 9 11 - - -
21/10:00am 21.6 - - - - NE 17 22 9 12 - - -
21/09:30am 21.4 - - - - NE 15 19 8 10 - - -
21/09:00am 20.4 - - - - WSW 7 9 4 5 - - -
21/08:30am 20.0 - - - - WSW 9 11 5 6 - - -
21/08:00am 19.7 - - - - WSW 7 9 4 5 - - -
21/07:30am 19.5 - - - - WSW 7 11 4 6 - - -
21/07:00am 18.7 - - - - W 9 11 5 6 - - -
21/06:30am 18.5 - - - - W 7 9 4 5 - - -
21/06:00am 18.4 - - - - W 7 9 4 5 - - -
21/05:30am 18.4 - - - - CALM 0 0 0 0 - - -
21/05:00am 18.6 - - - - CALM 0 0 0 0 - - -
21/04:30am 18.4 - - - - CALM 0 0 0 0 - - -
21/04:00am 18.8 - - - - CALM 0 0 0 0 - - -
21/03:30am 18.8 - - - - CALM 0 0 0 0 - - -
21/03:00am 18.7 - - - - CALM 0 0 0 0 - - -
21/02:30am 18.9 - - - - CALM 0 0 0 0 - - -
21/02:00am 19.4 - - - - CALM 0 0 0 0 - - -
21/01:30am 19.5 - - - - NNE 4 6 2 3 - - -
21/01:00am 19.7 - - - - NNE 7 9 4 5 - - -
21/12:30am 20.3 - - - - NNE 11 15 6 8 - - -
21/12:00am 20.6 - - - - NNE 13 15 7 8 - - -
 
Date/Time
EDT
Temp
°C
App
Temp
°C
Dew
Point
Rel
Hum
%
Delta-T
°C
Wind Press
QNH
hPa
Press
MSL
hPa
Rain
since 9 am
mm
Dir
 
Spd
km/h
Gust
km/h
Spd
kts
Gust
kts
20/11:30pm 20.7 - - - - NE 17 20 9 11 - - -
20/11:00pm 20.7 - - - - NE 20 24 11 13 - - -
20/10:30pm 20.7 - - - - NE 22 26 12 14 - - -
20/10:00pm 20.7 - - - - NE 22 28 12 15 - - -
20/09:30pm 20.7 - - - - NE 24 28 13 15 - - -
20/09:00pm 20.7 - - - - NE 22 26 12 14 - - -
20/08:30pm 20.6 - - - - NE 20 26 11 14 - - -
20/08:00pm 20.5 - - - - NE 22 26 12 14 - - -
20/07:30pm 20.6 - - - - NE 22 26 12 14 - - -
20/07:00pm 20.5 - - - - NE 24 28 13 15 - - -
20/06:30pm 20.4 - - - - NE 24 28 13 15 - - -
20/06:00pm 20.4 - - - - ENE 22 26 12 14 - - -
20/05:30pm 20.3 - - - - ENE 22 26 12 14 - - -
20/05:00pm 20.4 - - - - ENE 20 28 11 15 - - -
20/04:30pm 20.3 - - - - ENE 20 26 11 14 - - -
20/04:00pm 20.2 - - - - ENE 20 26 11 14 - - -
20/03:30pm 19.9 - - - - ENE 24 26 13 14 - - -
20/03:00pm 20.0 - - - - ENE 20 26 11 14 - - -
20/02:30pm 19.8 - - - - ENE 20 24 11 13 - - -
20/02:00pm 20.1 - - - - ENE 19 24 10 13 - - -
20/01:30pm 19.7 - - - - ENE 19 24 10 13 - - -
20/01:00pm 19.8 - - - - ENE 19 24 10 13 - - -
20/12:30pm 19.9 - - - - E 17 22 9 12 - - -
20/12:00pm 20.1 - - - - E 15 19 8 10 - - -
20/11:30am 20.2 - - - - E 15 19 8 10 - - -
20/11:00am 19.5 - - - - ENE 15 19 8 10 - - -
20/10:30am 19.9 - - - - E 11 15 6 8 - - -
20/10:00am 19.6 - - - - ESE 11 17 6 9 - - -
20/09:30am 19.7 - - - - SE 13 17 7 9 - - -
20/09:00am 19.6 - - - - E 11 13 6 7 - - -
20/08:30am 19.3 - - - - SE 11 17 6 9 - - -
20/08:00am 18.9 - - - - S 9 13 5 7 - - -
20/07:30am 18.8 - - - - SSW 11 13 6 7 - - -
20/07:00am 18.9 - - - - SSE 7 9 4 5 - - -
20/06:30am 18.9 - - - - SSE 9 15 5 8 - - -
20/06:00am 19.0 - - - - SE 11 15 6 8 - - -
20/05:30am 19.0 - - - - SSE 11 15 6 8 - - -
20/05:00am 19.0 - - - - SE 9 13 5 7 - - -
20/04:30am 18.9 - - - - SSE 13 17 7 9 - - -
20/04:00am 18.8 - - - - SSE 11 15 6 8 - - -
20/03:30am 18.9 - - - - SSE 13 17 7 9 - - -
20/03:00am 19.0 - - - - SE 15 17 8 9 - - -
20/02:30am 19.0 - - - - SSE 13 17 7 9 - - -
20/02:00am 19.0 - - - - SSE 17 19 9 10 - - -

Other Formats:

Comma delimited format used in spreadsheet applications
http://www.bom.gov.au/fwo/IDN60801/IDN60801.95766.axf

JavaScript Object Notation format (JSON) in row-major order
http://www.bom.gov.au/fwo/IDN60801/IDN60801.95766.json